sensor_id;sensor_type;location;lat;lon;timestamp;temperature;humidity
52495;DHT22;38405;53.212;5.660;2022-11-15T00:02:09;7.60;99.90
52495;DHT22;38405;53.212;5.660;2022-11-15T00:04:34;7.60;99.90
52495;DHT22;38405;53.212;5.660;2022-11-15T00:07:00;7.60;99.90
52495;DHT22;38405;53.212;5.660;2022-11-15T00:09:26;7.60;99.90
52495;DHT22;38405;53.212;5.660;2022-11-15T00:11:51;7.60;99.90
52495;DHT22;38405;53.212;5.660;2022-11-15T00:14:17;7.60;99.90
52495;DHT22;38405;53.212;5.660;2022-11-15T00:16:43;7.60;99.90
52495;DHT22;38405;53.212;5.660;2022-11-15T00:19:09;7.60;99.90
52495;DHT22;38405;53.212;5.660;2022-11-15T00:21:34;7.60;99.90
52495;DHT22;38405;53.212;5.660;2022-11-15T00:24:00;7.60;99.90
52495;DHT22;38405;53.212;5.660;2022-11-15T00:26:25;7.60;99.90
52495;DHT22;38405;53.212;5.660;2022-11-15T00:28:54;7.70;99.90
52495;DHT22;38405;53.212;5.660;2022-11-15T00:31:20;7.60;99.90
52495;DHT22;38405;53.212;5.660;2022-11-15T00:33:45;8.00;99.90
52495;DHT22;38405;53.212;5.660;2022-11-15T00:36:11;7.90;99.90
52495;DHT22;38405;53.212;5.660;2022-11-15T00:38:39;7.60;99.90
52495;DHT22;38405;53.212;5.660;2022-11-15T00:41:06;7.60;99.90
52495;DHT22;38405;53.212;5.660;2022-11-15T00:43:32;7.50;99.90
52495;DHT22;38405;53.212;5.660;2022-11-15T00:45:58;7.60;99.90
52495;DHT22;38405;53.212;5.660;2022-11-15T00:48:24;7.50;99.90
52495;DHT22;38405;53.212;5.660;2022-11-15T00:50:49;7.50;99.90
52495;DHT22;38405;53.212;5.660;2022-11-15T00:53:16;7.40;99.90
52495;DHT22;38405;53.212;5.660;2022-11-15T00:55:41;7.40;99.90
52495;DHT22;38405;53.212;5.660;2022-11-15T00:58:07;7.30;99.90
52495;DHT22;38405;53.212;5.660;2022-11-15T01:00:33;7.30;99.90
52495;DHT22;38405;53.212;5.660;2022-11-15T01:03:00;7.20;99.90
52495;DHT22;38405;53.212;5.660;2022-11-15T01:05:27;7.20;99.90
52495;DHT22;38405;53.212;5.660;2022-11-15T01:07:53;7.10;99.90
52495;DHT22;38405;53.212;5.660;2022-11-15T01:10:20;7.10;99.90
52495;DHT22;38405;53.212;5.660;2022-11-15T01:12:46;7.10;99.90
52495;DHT22;38405;53.212;5.660;2022-11-15T01:15:11;7.10;99.90
52495;DHT22;38405;53.212;5.660;2022-11-15T01:17:37;7.00;99.90
52495;DHT22;38405;53.212;5.660;2022-11-15T01:20:03;7.00;99.90
52495;DHT22;38405;53.212;5.660;2022-11-15T01:22:29;7.00;99.90
52495;DHT22;38405;53.212;5.660;2022-11-15T01:24:54;7.50;99.90
52495;DHT22;38405;53.212;5.660;2022-11-15T01:27:20;6.90;99.90
52495;DHT22;38405;53.212;5.660;2022-11-15T01:29:46;6.90;99.90
52495;DHT22;38405;53.212;5.660;2022-11-15T01:32:11;6.80;99.90
52495;DHT22;38405;53.212;5.660;2022-11-15T01:34:37;7.40;99.90
52495;DHT22;38405;53.212;5.660;2022-11-15T01:37:02;6.80;99.90
52495;DHT22;38405;53.212;5.660;2022-11-15T01:39:28;6.70;99.90
52495;DHT22;38405;53.212;5.660;2022-11-15T01:41:54;7.00;99.90
52495;DHT22;38405;53.212;5.660;2022-11-15T01:44:46;6.60;99.90
52495;DHT22;38405;53.212;5.660;2022-11-15T01:47:14;6.60;99.90
52495;DHT22;38405;53.212;5.660;2022-11-15T01:49:54;7.40;99.90
52495;DHT22;38405;53.212;5.660;2022-11-15T01:52:22;6.50;99.90
52495;DHT22;38405;53.212;5.660;2022-11-15T01:54:53;7.20;99.90
52495;DHT22;38405;53.212;5.660;2022-11-15T01:57:19;6.40;99.90
52495;DHT22;38405;53.212;5.660;2022-11-15T01:59:45;6.30;99.90
52495;DHT22;38405;53.212;5.660;2022-11-15T02:02:12;6.30;99.90
52495;DHT22;38405;53.212;5.660;2022-11-15T02:04:45;6.60;99.90
52495;DHT22;38405;53.212;5.660;2022-11-15T02:07:14;6.20;99.90
52495;DHT22;38405;53.212;5.660;2022-11-15T02:09:40;6.20;99.90
52495;DHT22;38405;53.212;5.660;2022-11-15T02:12:07;6.20;99.90
52495;DHT22;38405;53.212;5.660;2022-11-15T02:14:36;6.20;99.90
52495;DHT22;38405;53.212;5.660;2022-11-15T02:34:56;6.20;99.90
52495;DHT22;38405;53.212;5.660;2022-11-15T02:37:39;6.20;99.90
52495;DHT22;38405;53.212;5.660;2022-11-15T02:42:54;6.20;99.90
52495;DHT22;38405;53.212;5.660;2022-11-15T02:45:44;6.20;99.90
52495;DHT22;38405;53.212;5.660;2022-11-15T02:48:11;6.50;99.90
52495;DHT22;38405;53.212;5.660;2022-11-15T02:50:38;7.00;99.90
52495;DHT22;38405;53.212;5.660;2022-11-15T02:53:03;6.30;99.90
52495;DHT22;38405;53.212;5.660;2022-11-15T02:55:30;6.30;99.90
52495;DHT22;38405;53.212;5.660;2022-11-15T02:58:18;6.30;99.90
52495;DHT22;38405;53.212;5.660;2022-11-15T03:01:00;6.30;99.90
52495;DHT22;38405;53.212;5.660;2022-11-15T03:03:48;6.40;99.90
52495;DHT22;38405;53.212;5.660;2022-11-15T03:06:45;6.40;99.90
52495;DHT22;38405;53.212;5.660;2022-11-15T03:09:42;6.70;99.90
52495;DHT22;38405;53.212;5.660;2022-11-15T03:12:26;6.40;99.90
52495;DHT22;38405;53.212;5.660;2022-11-15T03:15:11;6.40;99.90
52495;DHT22;38405;53.212;5.660;2022-11-15T03:17:50;6.40;99.90
52495;DHT22;38405;53.212;5.660;2022-11-15T03:20:19;6.50;99.90
52495;DHT22;38405;53.212;5.660;2022-11-15T03:22:47;6.50;99.90
52495;DHT22;38405;53.212;5.660;2022-11-15T03:25:19;6.50;99.90
52495;DHT22;38405;53.212;5.660;2022-11-15T03:27:47;6.50;99.90
52495;DHT22;38405;53.212;5.660;2022-11-15T03:30:15;6.50;99.90
52495;DHT22;38405;53.212;5.660;2022-11-15T03:32:48;6.50;99.90
52495;DHT22;38405;53.212;5.660;2022-11-15T03:35:23;6.50;99.90
52495;DHT22;38405;53.212;5.660;2022-11-15T03:40:32;6.50;99.90
52495;DHT22;38405;53.212;5.660;2022-11-15T03:45:56;6.60;99.90
52495;DHT22;38405;53.212;5.660;2022-11-15T03:48:28;6.60;99.90
52495;DHT22;38405;53.212;5.660;2022-11-15T03:50:56;7.00;99.90
52495;DHT22;38405;53.212;5.660;2022-11-15T03:53:21;6.60;99.90
52495;DHT22;38405;53.212;5.660;2022-11-15T03:55:47;6.60;99.90
52495;DHT22;38405;53.212;5.660;2022-11-15T03:58:13;6.60;99.90
52495;DHT22;38405;53.212;5.660;2022-11-15T04:00:38;7.50;99.90
52495;DHT22;38405;53.212;5.660;2022-11-15T04:03:04;6.60;99.90
52495;DHT22;38405;53.212;5.660;2022-11-15T04:05:29;6.60;99.90
52495;DHT22;38405;53.212;5.660;2022-11-15T04:07:55;6.70;99.90
52495;DHT22;38405;53.212;5.660;2022-11-15T04:10:21;6.60;99.90
52495;DHT22;38405;53.212;5.660;2022-11-15T04:12:46;6.70;99.90
52495;DHT22;38405;53.212;5.660;2022-11-15T04:15:18;6.70;99.90
52495;DHT22;38405;53.212;5.660;2022-11-15T04:17:52;6.70;99.90
52495;DHT22;38405;53.212;5.660;2022-11-15T04:20:23;6.70;99.90
52495;DHT22;38405;53.212;5.660;2022-11-15T04:23:27;6.70;99.90
52495;DHT22;38405;53.212;5.660;2022-11-15T04:26:14;6.80;99.90
52495;DHT22;38405;53.212;5.660;2022-11-15T04:28:41;6.80;99.90
52495;DHT22;38405;53.212;5.660;2022-11-15T04:31:29;6.80;99.90
52495;DHT22;38405;53.212;5.660;2022-11-15T04:33:55;7.10;99.90
52495;DHT22;38405;53.212;5.660;2022-11-15T04:36:21;6.90;99.90
52495;DHT22;38405;53.212;5.660;2022-11-15T04:39:06;7.00;99.90
52495;DHT22;38405;53.212;5.660;2022-11-15T04:41:31;7.00;99.90
52495;DHT22;38405;53.212;5.660;2022-11-15T04:43:57;7.00;99.90
52495;DHT22;38405;53.212;5.660;2022-11-15T04:46:23;7.00;99.90
52495;DHT22;38405;53.212;5.660;2022-11-15T04:48:50;7.00;99.90
52495;DHT22;38405;53.212;5.660;2022-11-15T04:51:16;7.20;99.90
52495;DHT22;38405;53.212;5.660;2022-11-15T04:53:42;7.10;99.90
52495;DHT22;38405;53.212;5.660;2022-11-15T04:56:07;7.10;99.90
52495;DHT22;38405;53.212;5.660;2022-11-15T04:58:33;7.10;99.90
52495;DHT22;38405;53.212;5.660;2022-11-15T05:01:07;7.10;99.90
52495;DHT22;38405;53.212;5.660;2022-11-15T05:03:33;7.10;99.90
52495;DHT22;38405;53.212;5.660;2022-11-15T05:06:17;7.20;99.90
52495;DHT22;38405;53.212;5.660;2022-11-15T05:08:42;7.20;99.90
52495;DHT22;38405;53.212;5.660;2022-11-15T05:11:08;7.20;99.90
52495;DHT22;38405;53.212;5.660;2022-11-15T05:13:34;7.20;99.90
52495;DHT22;38405;53.212;5.660;2022-11-15T05:15:59;7.30;99.90
52495;DHT22;38405;53.212;5.660;2022-11-15T05:18:25;7.60;99.90
52495;DHT22;38405;53.212;5.660;2022-11-15T05:20:50;7.30;99.90
52495;DHT22;38405;53.212;5.660;2022-11-15T05:23:16;7.40;99.90
52495;DHT22;38405;53.212;5.660;2022-11-15T05:25:42;7.40;99.90
52495;DHT22;38405;53.212;5.660;2022-11-15T05:28:07;7.40;99.90
52495;DHT22;38405;53.212;5.660;2022-11-15T05:30:33;7.50;99.90
52495;DHT22;38405;53.212;5.660;2022-11-15T05:32:59;7.50;99.90
52495;DHT22;38405;53.212;5.660;2022-11-15T05:35:40;7.60;99.90
52495;DHT22;38405;53.212;5.660;2022-11-15T05:38:07;7.60;99.90
52495;DHT22;38405;53.212;5.660;2022-11-15T05:40:33;7.70;99.90
52495;DHT22;38405;53.212;5.660;2022-11-15T05:43:00;7.70;99.90
52495;DHT22;38405;53.212;5.660;2022-11-15T05:45:27;7.70;99.90
52495;DHT22;38405;53.212;5.660;2022-11-15T05:47:54;7.80;99.90
52495;DHT22;38405;53.212;5.660;2022-11-15T05:50:21;7.90;99.90
52495;DHT22;38405;53.212;5.660;2022-11-15T05:52:47;7.90;99.90
52495;DHT22;38405;53.212;5.660;2022-11-15T05:55:13;8.00;99.90
52495;DHT22;38405;53.212;5.660;2022-11-15T05:57:39;8.00;99.90
52495;DHT22;38405;53.212;5.660;2022-11-15T06:00:05;8.10;99.90
52495;DHT22;38405;53.212;5.660;2022-11-15T06:02:31;8.10;99.90
52495;DHT22;38405;53.212;5.660;2022-11-15T06:04:57;8.10;99.90
52495;DHT22;38405;53.212;5.660;2022-11-15T06:07:22;8.20;99.90
52495;DHT22;38405;53.212;5.660;2022-11-15T06:09:48;8.60;99.90
52495;DHT22;38405;53.212;5.660;2022-11-15T06:12:14;8.30;99.90
52495;DHT22;38405;53.212;5.660;2022-11-15T06:14:39;8.30;99.90
52495;DHT22;38405;53.212;5.660;2022-11-15T06:17:05;8.40;99.90
52495;DHT22;38405;53.212;5.660;2022-11-15T06:19:30;8.30;99.90
52495;DHT22;38405;53.212;5.660;2022-11-15T06:21:59;8.40;99.90
52495;DHT22;38405;53.212;5.660;2022-11-15T06:24:27;8.40;99.90
52495;DHT22;38405;53.212;5.660;2022-11-15T06:26:53;8.50;99.90
52495;DHT22;38405;53.212;5.660;2022-11-15T06:29:19;8.50;99.90
52495;DHT22;38405;53.212;5.660;2022-11-15T06:31:45;8.60;99.90
52495;DHT22;38405;53.212;5.660;2022-11-15T06:34:13;8.60;99.90
52495;DHT22;38405;53.212;5.660;2022-11-15T06:36:39;8.70;99.90
52495;DHT22;38405;53.212;5.660;2022-11-15T06:39:10;8.70;99.90
52495;DHT22;38405;53.212;5.660;2022-11-15T06:41:37;8.80;99.90
52495;DHT22;38405;53.212;5.660;2022-11-15T06:44:03;8.80;99.90
52495;DHT22;38405;53.212;5.660;2022-11-15T06:46:29;8.80;99.90
52495;DHT22;38405;53.212;5.660;2022-11-15T06:48:54;8.90;99.90
52495;DHT22;38405;53.212;5.660;2022-11-15T06:51:23;8.90;99.90
52495;DHT22;38405;53.212;5.660;2022-11-15T06:53:48;8.90;99.90
52495;DHT22;38405;53.212;5.660;2022-11-15T06:56:17;9.00;99.90
52495;DHT22;38405;53.212;5.660;2022-11-15T06:58:42;9.00;99.90
52495;DHT22;38405;53.212;5.660;2022-11-15T07:01:10;9.10;99.90
52495;DHT22;38405;53.212;5.660;2022-11-15T07:03:41;9.50;99.90
52495;DHT22;38405;53.212;5.660;2022-11-15T07:06:07;9.30;99.90
52495;DHT22;38405;53.212;5.660;2022-11-15T07:08:34;9.20;99.90
52495;DHT22;38405;53.212;5.660;2022-11-15T07:11:02;9.30;99.90
52495;DHT22;38405;53.212;5.660;2022-11-15T07:13:30;9.30;99.90
52495;DHT22;38405;53.212;5.660;2022-11-15T07:16:01;9.30;99.90
52495;DHT22;38405;53.212;5.660;2022-11-15T07:18:26;9.40;99.90
52495;DHT22;38405;53.212;5.660;2022-11-15T07:20:52;9.40;99.90
52495;DHT22;38405;53.212;5.660;2022-11-15T07:23:18;9.40;99.90
52495;DHT22;38405;53.212;5.660;2022-11-15T07:25:44;9.40;99.90
52495;DHT22;38405;53.212;5.660;2022-11-15T07:28:09;9.40;99.90
52495;DHT22;38405;53.212;5.660;2022-11-15T07:30:35;9.50;99.90
52495;DHT22;38405;53.212;5.660;2022-11-15T07:33:00;9.50;99.90
52495;DHT22;38405;53.212;5.660;2022-11-15T07:35:27;9.50;99.90
52495;DHT22;38405;53.212;5.660;2022-11-15T07:37:55;9.80;99.90
52495;DHT22;38405;53.212;5.660;2022-11-15T07:40:21;9.70;99.90
52495;DHT22;38405;53.212;5.660;2022-11-15T07:42:47;9.70;99.90
52495;DHT22;38405;53.212;5.660;2022-11-15T07:45:23;9.80;99.90
52495;DHT22;38405;53.212;5.660;2022-11-15T07:47:52;9.80;99.90
52495;DHT22;38405;53.212;5.660;2022-11-15T07:50:18;9.80;99.90
52495;DHT22;38405;53.212;5.660;2022-11-15T07:52:43;9.90;99.90
52495;DHT22;38405;53.212;5.660;2022-11-15T07:55:09;10.00;99.90
52495;DHT22;38405;53.212;5.660;2022-11-15T07:57:35;10.20;99.90
52495;DHT22;38405;53.212;5.660;2022-11-15T08:00:01;10.20;99.90
52495;DHT22;38405;53.212;5.660;2022-11-15T08:02:26;10.10;99.90
52495;DHT22;38405;53.212;5.660;2022-11-15T08:04:52;10.20;99.90
52495;DHT22;38405;53.212;5.660;2022-11-15T08:07:18;10.20;99.90
52495;DHT22;38405;53.212;5.660;2022-11-15T08:09:43;10.20;99.90
52495;DHT22;38405;53.212;5.660;2022-11-15T08:12:09;10.30;99.90
52495;DHT22;38405;53.212;5.660;2022-11-15T08:14:35;10.30;99.90
52495;DHT22;38405;53.212;5.660;2022-11-15T08:17:01;10.60;99.90
52495;DHT22;38405;53.212;5.660;2022-11-15T08:19:29;10.50;99.90
52495;DHT22;38405;53.212;5.660;2022-11-15T08:21:55;10.60;99.90
52495;DHT22;38405;53.212;5.660;2022-11-15T08:24:20;10.60;99.90
52495;DHT22;38405;53.212;5.660;2022-11-15T08:26:46;10.60;99.90
52495;DHT22;38405;53.212;5.660;2022-11-15T08:29:12;10.60;99.90
52495;DHT22;38405;53.212;5.660;2022-11-15T08:31:38;10.60;99.90
52495;DHT22;38405;53.212;5.660;2022-11-15T08:34:04;10.60;99.90
52495;DHT22;38405;53.212;5.660;2022-11-15T08:36:31;10.80;99.90
52495;DHT22;38405;53.212;5.660;2022-11-15T08:38:56;10.70;99.90
52495;DHT22;38405;53.212;5.660;2022-11-15T08:41:31;10.70;99.90
52495;DHT22;38405;53.212;5.660;2022-11-15T08:43:56;10.70;99.90
52495;DHT22;38405;53.212;5.660;2022-11-15T08:46:22;10.80;99.90
52495;DHT22;38405;53.212;5.660;2022-11-15T08:48:48;10.80;99.90
52495;DHT22;38405;53.212;5.660;2022-11-15T08:51:14;11.00;99.90
52495;DHT22;38405;53.212;5.660;2022-11-15T08:53:40;10.90;99.90
52495;DHT22;38405;53.212;5.660;2022-11-15T08:56:10;11.00;99.90
52495;DHT22;38405;53.212;5.660;2022-11-15T08:58:35;11.10;99.90
52495;DHT22;38405;53.212;5.660;2022-11-15T09:01:01;11.10;99.90
52495;DHT22;38405;53.212;5.660;2022-11-15T09:03:27;11.10;99.90
52495;DHT22;38405;53.212;5.660;2022-11-15T09:05:57;11.10;99.90
52495;DHT22;38405;53.212;5.660;2022-11-15T09:08:23;11.10;99.90
52495;DHT22;38405;53.212;5.660;2022-11-15T09:10:50;11.20;99.90
52495;DHT22;38405;53.212;5.660;2022-11-15T09:13:15;11.20;99.90
52495;DHT22;38405;53.212;5.660;2022-11-15T09:15:41;11.20;99.90
52495;DHT22;38405;53.212;5.660;2022-11-15T09:18:07;11.40;99.90
52495;DHT22;38405;53.212;5.660;2022-11-15T09:20:32;11.50;99.90
52495;DHT22;38405;53.212;5.660;2022-11-15T09:23:02;11.60;99.90
52495;DHT22;38405;53.212;5.660;2022-11-15T09:25:28;11.70;99.90
52495;DHT22;38405;53.212;5.660;2022-11-15T09:27:54;11.70;99.90
52495;DHT22;38405;53.212;5.660;2022-11-15T09:30:20;11.70;99.90
52495;DHT22;38405;53.212;5.660;2022-11-15T09:32:46;11.70;99.90
52495;DHT22;38405;53.212;5.660;2022-11-15T09:35:11;11.80;99.90
52495;DHT22;38405;53.212;5.660;2022-11-15T09:37:40;11.80;99.90
52495;DHT22;38405;53.212;5.660;2022-11-15T09:40:14;11.90;99.90
52495;DHT22;38405;53.212;5.660;2022-11-15T09:45:28;11.90;99.90
52495;DHT22;38405;53.212;5.660;2022-11-15T09:50:50;12.10;99.90
52495;DHT22;38405;53.212;5.660;2022-11-15T09:53:32;12.00;99.90
52495;DHT22;38405;53.212;5.660;2022-11-15T09:56:02;12.10;99.90
52495;DHT22;38405;53.212;5.660;2022-11-15T10:01:45;12.40;99.90
52495;DHT22;38405;53.212;5.660;2022-11-15T10:04:15;12.40;99.90
52495;DHT22;38405;53.212;5.660;2022-11-15T10:06:46;12.10;99.90
52495;DHT22;38405;53.212;5.660;2022-11-15T10:12:10;11.80;99.90
52495;DHT22;38405;53.212;5.660;2022-11-15T10:14:37;11.70;99.90
52495;DHT22;38405;53.212;5.660;2022-11-15T10:24:46;11.70;99.90
52495;DHT22;38405;53.212;5.660;2022-11-15T10:27:18;11.70;99.90
52495;DHT22;38405;53.212;5.660;2022-11-15T10:29:46;11.70;99.90
52495;DHT22;38405;53.212;5.660;2022-11-15T10:32:14;11.70;99.90
52495;DHT22;38405;53.212;5.660;2022-11-15T10:34:40;11.70;99.90
52495;DHT22;38405;53.212;5.660;2022-11-15T10:37:06;11.80;99.90
52495;DHT22;38405;53.212;5.660;2022-11-15T10:39:31;11.80;99.90
52495;DHT22;38405;53.212;5.660;2022-11-15T10:42:22;11.80;99.90
52495;DHT22;38405;53.212;5.660;2022-11-15T10:44:50;11.90;99.90
52495;DHT22;38405;53.212;5.660;2022-11-15T10:47:36;11.90;99.90
52495;DHT22;38405;53.212;5.660;2022-11-15T10:50:31;11.90;99.90
52495;DHT22;38405;53.212;5.660;2022-11-15T10:52:58;11.90;99.90
52495;DHT22;38405;53.212;5.660;2022-11-15T10:55:29;12.00;99.90
52495;DHT22;38405;53.212;5.660;2022-11-15T10:58:05;12.00;99.90
52495;DHT22;38405;53.212;5.660;2022-11-15T11:00:33;12.10;99.90
52495;DHT22;38405;53.212;5.660;2022-11-15T11:03:02;12.10;99.90
52495;DHT22;38405;53.212;5.660;2022-11-15T11:10:29;12.20;99.90
52495;DHT22;38405;53.212;5.660;2022-11-15T11:12:55;12.30;99.90
52495;DHT22;38405;53.212;5.660;2022-11-15T11:15:24;12.30;99.90
52495;DHT22;38405;53.212;5.660;2022-11-15T11:18:07;12.30;99.90
52495;DHT22;38405;53.212;5.660;2022-11-15T11:20:41;12.30;99.90
52495;DHT22;38405;53.212;5.660;2022-11-15T11:29:32;12.20;99.90
52495;DHT22;38405;53.212;5.660;2022-11-15T11:31:49;12.20;99.90
52495;DHT22;38405;53.212;5.660;2022-11-15T11:37:21;12.10;99.90
52495;DHT22;38405;53.212;5.660;2022-11-15T11:45:29;12.30;99.90
52495;DHT22;38405;53.212;5.660;2022-11-15T11:48:22;12.30;99.90
52495;DHT22;38405;53.212;5.660;2022-11-15T11:50:49;12.30;99.90
52495;DHT22;38405;53.212;5.660;2022-11-15T11:53:17;12.40;99.90
52495;DHT22;38405;53.212;5.660;2022-11-15T11:55:53;12.50;99.90
52495;DHT22;38405;53.212;5.660;2022-11-15T12:00:56;12.70;99.90
52495;DHT22;38405;53.212;5.660;2022-11-15T12:03:43;12.90;99.90
52495;DHT22;38405;53.212;5.660;2022-11-15T12:06:30;13.20;99.90
52495;DHT22;38405;53.212;5.660;2022-11-15T12:12:05;13.00;99.90
52495;DHT22;38405;53.212;5.660;2022-11-15T12:17:02;12.90;99.90
52495;DHT22;38405;53.212;5.660;2022-11-15T12:19:29;12.80;99.90
52495;DHT22;38405;53.212;5.660;2022-11-15T12:24:34;12.70;99.90
52495;DHT22;38405;53.212;5.660;2022-11-15T12:29:50;12.70;99.90
52495;DHT22;38405;53.212;5.660;2022-11-15T12:32:25;12.70;99.90
52495;DHT22;38405;53.212;5.660;2022-11-15T12:34:54;12.90;99.90
52495;DHT22;38405;53.212;5.660;2022-11-15T12:40:04;12.80;99.90
52495;DHT22;38405;53.212;5.660;2022-11-15T12:44:57;12.70;99.90
52495;DHT22;38405;53.212;5.660;2022-11-15T12:47:25;12.80;99.90
52495;DHT22;38405;53.212;5.660;2022-11-15T12:49:51;12.90;99.90
52495;DHT22;38405;53.212;5.660;2022-11-15T12:52:18;12.90;99.90
52495;DHT22;38405;53.212;5.660;2022-11-15T12:54:52;12.90;99.90
52495;DHT22;38405;53.212;5.660;2022-11-15T12:57:30;12.90;99.90
52495;DHT22;38405;53.212;5.660;2022-11-15T13:00:36;12.80;99.90
52495;DHT22;38405;53.212;5.660;2022-11-15T13:03:24;12.70;99.90
52495;DHT22;38405;53.212;5.660;2022-11-15T13:05:55;12.60;99.90
52495;DHT22;38405;53.212;5.660;2022-11-15T13:08:43;12.60;99.90
52495;DHT22;38405;53.212;5.660;2022-11-15T13:11:44;12.50;99.90
52495;DHT22;38405;53.212;5.660;2022-11-15T13:19:59;12.50;99.90
52495;DHT22;38405;53.212;5.660;2022-11-15T13:22:27;12.80;99.90
52495;DHT22;38405;53.212;5.660;2022-11-15T13:27:46;12.30;99.90
52495;DHT22;38405;53.212;5.660;2022-11-15T13:30:24;12.40;99.90
52495;DHT22;38405;53.212;5.660;2022-11-15T13:32:50;12.30;99.90
52495;DHT22;38405;53.212;5.660;2022-11-15T13:35:39;12.30;99.90
52495;DHT22;38405;53.212;5.660;2022-11-15T13:38:22;12.20;99.90
52495;DHT22;38405;53.212;5.660;2022-11-15T13:40:51;12.20;99.90
52495;DHT22;38405;53.212;5.660;2022-11-15T13:48:40;12.20;99.90
52495;DHT22;38405;53.212;5.660;2022-11-15T13:51:13;12.20;99.90
52495;DHT22;38405;53.212;5.660;2022-11-15T13:53:40;12.10;99.90
52495;DHT22;38405;53.212;5.660;2022-11-15T13:56:07;12.10;99.90
52495;DHT22;38405;53.212;5.660;2022-11-15T13:58:33;12.00;99.90
52495;DHT22;38405;53.212;5.660;2022-11-15T14:01:04;11.90;99.90
52495;DHT22;38405;53.212;5.660;2022-11-15T14:03:32;11.80;99.90
52495;DHT22;38405;53.212;5.660;2022-11-15T14:06:11;11.70;99.90
52495;DHT22;38405;53.212;5.660;2022-11-15T14:08:42;11.70;99.90
52495;DHT22;38405;53.212;5.660;2022-11-15T14:11:19;11.60;99.90
52495;DHT22;38405;53.212;5.660;2022-11-15T14:16:34;11.50;99.90
52495;DHT22;38405;53.212;5.660;2022-11-15T14:19:01;11.40;99.90
52495;DHT22;38405;53.212;5.660;2022-11-15T14:21:27;11.40;99.90
52495;DHT22;38405;53.212;5.660;2022-11-15T14:24:13;11.30;99.90
52495;DHT22;38405;53.212;5.660;2022-11-15T14:26:38;11.20;99.90
52495;DHT22;38405;53.212;5.660;2022-11-15T14:29:29;11.20;99.90
52495;DHT22;38405;53.212;5.660;2022-11-15T14:32:15;11.10;99.90
52495;DHT22;38405;53.212;5.660;2022-11-15T14:34:41;11.00;99.90
52495;DHT22;38405;53.212;5.660;2022-11-15T14:37:28;11.00;99.90
52495;DHT22;38405;53.212;5.660;2022-11-15T14:39:54;10.90;99.90
52495;DHT22;38405;53.212;5.660;2022-11-15T14:42:24;10.90;99.90
52495;DHT22;38405;53.212;5.660;2022-11-15T14:44:50;10.80;99.90
52495;DHT22;38405;53.212;5.660;2022-11-15T14:47:16;10.80;99.90
52495;DHT22;38405;53.212;5.660;2022-11-15T14:49:42;10.70;99.90
52495;DHT22;38405;53.212;5.660;2022-11-15T14:54:42;10.60;99.90
52495;DHT22;38405;53.212;5.660;2022-11-15T14:57:08;10.60;99.90
52495;DHT22;38405;53.212;5.660;2022-11-15T14:59:33;10.60;99.90
52495;DHT22;38405;53.212;5.660;2022-11-15T15:01:59;10.60;99.90
52495;DHT22;38405;53.212;5.660;2022-11-15T15:04:24;10.50;99.90
52495;DHT22;38405;53.212;5.660;2022-11-15T15:06:51;10.50;99.90
52495;DHT22;38405;53.212;5.660;2022-11-15T15:09:16;10.50;99.90
52495;DHT22;38405;53.212;5.660;2022-11-15T15:11:43;10.40;99.90
52495;DHT22;38405;53.212;5.660;2022-11-15T15:14:10;10.40;99.90
52495;DHT22;38405;53.212;5.660;2022-11-15T15:16:36;10.40;99.90
52495;DHT22;38405;53.212;5.660;2022-11-15T15:19:02;10.30;99.90
52495;DHT22;38405;53.212;5.660;2022-11-15T15:21:28;10.20;99.90
52495;DHT22;38405;53.212;5.660;2022-11-15T15:23:54;10.20;99.90
52495;DHT22;38405;53.212;5.660;2022-11-15T15:26:20;10.20;99.90
52495;DHT22;38405;53.212;5.660;2022-11-15T15:28:46;10.10;99.90
52495;DHT22;38405;53.212;5.660;2022-11-15T15:31:14;10.10;99.90
52495;DHT22;38405;53.212;5.660;2022-11-15T15:33:40;10.00;99.90
52495;DHT22;38405;53.212;5.660;2022-11-15T15:36:12;10.00;99.90
52495;DHT22;38405;53.212;5.660;2022-11-15T15:38:38;10.00;99.90
52495;DHT22;38405;53.212;5.660;2022-11-15T15:41:13;9.90;99.90
52495;DHT22;38405;53.212;5.660;2022-11-15T15:43:39;9.90;99.90
52495;DHT22;38405;53.212;5.660;2022-11-15T15:46:16;10.10;99.90
52495;DHT22;38405;53.212;5.660;2022-11-15T15:48:42;9.80;99.90
52495;DHT22;38405;53.212;5.660;2022-11-15T15:51:08;9.90;99.90
52495;DHT22;38405;53.212;5.660;2022-11-15T15:53:34;9.80;99.90
52495;DHT22;38405;53.212;5.660;2022-11-15T15:56:00;9.70;99.90
52495;DHT22;38405;53.212;5.660;2022-11-15T15:58:25;9.70;99.90
52495;DHT22;38405;53.212;5.660;2022-11-15T16:00:51;9.60;99.90
52495;DHT22;38405;53.212;5.660;2022-11-15T16:03:17;9.60;99.90
52495;DHT22;38405;53.212;5.660;2022-11-15T16:05:42;9.50;99.90
52495;DHT22;38405;53.212;5.660;2022-11-15T16:08:21;9.70;99.90
52495;DHT22;38405;53.212;5.660;2022-11-15T16:10:47;9.60;99.90
52495;DHT22;38405;53.212;5.660;2022-11-15T16:13:16;9.60;99.90
52495;DHT22;38405;53.212;5.660;2022-11-15T16:15:43;9.60;99.90
52495;DHT22;38405;53.212;5.660;2022-11-15T16:18:15;9.60;99.90
52495;DHT22;38405;53.212;5.660;2022-11-15T16:20:43;9.70;99.90
52495;DHT22;38405;53.212;5.660;2022-11-15T16:23:14;9.70;99.90
52495;DHT22;38405;53.212;5.660;2022-11-15T16:28:21;9.80;99.90
52495;DHT22;38405;53.212;5.660;2022-11-15T16:30:48;9.80;99.90
52495;DHT22;38405;53.212;5.660;2022-11-15T16:33:14;9.90;99.90
52495;DHT22;38405;53.212;5.660;2022-11-15T16:35:39;10.00;99.90
52495;DHT22;38405;53.212;5.660;2022-11-15T16:38:06;10.10;99.90
52495;DHT22;38405;53.212;5.660;2022-11-15T16:40:33;10.10;99.90
52495;DHT22;38405;53.212;5.660;2022-11-15T16:43:00;10.20;99.90
52495;DHT22;38405;53.212;5.660;2022-11-15T16:45:31;10.20;99.90
52495;DHT22;38405;53.212;5.660;2022-11-15T16:47:58;10.30;99.90
52495;DHT22;38405;53.212;5.660;2022-11-15T16:50:28;10.30;99.90
52495;DHT22;38405;53.212;5.660;2022-11-15T16:52:55;10.40;99.90
52495;DHT22;38405;53.212;5.660;2022-11-15T16:55:23;10.40;99.90
52495;DHT22;38405;53.212;5.660;2022-11-15T16:57:50;10.40;99.90
52495;DHT22;38405;53.212;5.660;2022-11-15T17:00:18;10.50;99.90
52495;DHT22;38405;53.212;5.660;2022-11-15T17:02:45;10.50;99.90
52495;DHT22;38405;53.212;5.660;2022-11-15T17:05:12;10.50;99.90
52495;DHT22;38405;53.212;5.660;2022-11-15T17:07:38;10.50;99.90
52495;DHT22;38405;53.212;5.660;2022-11-15T17:10:04;10.50;99.90
52495;DHT22;38405;53.212;5.660;2022-11-15T17:12:32;10.60;99.90
52495;DHT22;38405;53.212;5.660;2022-11-15T17:14:58;10.60;99.90
52495;DHT22;38405;53.212;5.660;2022-11-15T17:17:23;10.60;99.90
52495;DHT22;38405;53.212;5.660;2022-11-15T17:19:51;10.60;99.90
52495;DHT22;38405;53.212;5.660;2022-11-15T17:22:18;10.70;99.90
52495;DHT22;38405;53.212;5.660;2022-11-15T17:24:43;10.70;99.90
52495;DHT22;38405;53.212;5.660;2022-11-15T17:27:09;10.70;99.90
52495;DHT22;38405;53.212;5.660;2022-11-15T17:29:34;10.70;99.90
52495;DHT22;38405;53.212;5.660;2022-11-15T17:32:03;10.80;99.90
52495;DHT22;38405;53.212;5.660;2022-11-15T17:34:29;10.80;99.90
52495;DHT22;38405;53.212;5.660;2022-11-15T17:36:54;10.90;99.90
52495;DHT22;38405;53.212;5.660;2022-11-15T17:39:20;11.00;99.90